createdAt,value
2023-05-04T00:00:14.972Z,430.00
2023-05-04T00:01:14.955Z,430.00
2023-05-04T00:02:15.040Z,429.00
2023-05-04T00:03:15.035Z,430.00
2023-05-04T00:04:15.058Z,428.00
2023-05-04T00:05:14.985Z,425.00
2023-05-04T00:06:14.992Z,425.00
2023-05-04T00:07:15.011Z,430.00
2023-05-04T00:08:15.015Z,432.00
2023-05-04T00:09:15.021Z,433.00
2023-05-04T00:10:15.036Z,435.00
2023-05-04T00:11:15.060Z,434.00
2023-05-04T00:12:15.090Z,434.00
2023-05-04T00:13:15.200Z,432.00
2023-05-04T00:14:15.134Z,431.00
2023-05-04T00:15:15.160Z,430.00
2023-05-04T00:16:15.255Z,428.00
2023-05-04T00:17:15.264Z,426.00
2023-05-04T00:18:15.253Z,424.00
2023-05-04T00:19:15.281Z,425.00
2023-05-04T00:20:15.303Z,424.00
2023-05-04T00:21:15.355Z,424.00
2023-05-04T00:22:15.352Z,428.00
2023-05-04T00:23:15.383Z,431.00
2023-05-04T00:24:15.424Z,431.00
2023-05-04T00:25:15.465Z,433.00
2023-05-04T00:26:15.509Z,435.00
2023-05-04T00:27:15.507Z,437.00
2023-05-04T00:28:15.553Z,440.00
2023-05-04T00:29:15.595Z,442.00
2023-05-04T00:30:15.635Z,441.00
2023-05-04T00:31:15.719Z,439.00
2023-05-04T00:32:15.721Z,437.00
2023-05-04T00:33:15.759Z,438.00
2023-05-04T00:34:15.817Z,437.00
2023-05-04T00:35:15.904Z,435.00
2023-05-04T00:36:15.931Z,434.00
2023-05-04T00:37:16.005Z,433.00
2023-05-04T00:38:16.056Z,432.00
2023-05-04T00:39:16.118Z,432.00
2023-05-04T00:40:16.168Z,432.00
2023-05-04T00:41:16.206Z,434.00
2023-05-04T00:42:16.301Z,433.00
2023-05-04T00:43:16.307Z,436.00
2023-05-04T00:44:16.352Z,437.00
2023-05-04T00:45:16.458Z,437.00
2023-05-04T00:46:16.483Z,435.00
2023-05-04T00:47:16.520Z,432.00
2023-05-04T00:48:16.517Z,432.00
2023-05-04T00:49:16.555Z,431.00
2023-05-04T00:50:16.598Z,429.00
2023-05-04T00:51:16.664Z,430.00
2023-05-04T00:52:16.693Z,429.00
2023-05-04T00:53:16.730Z,428.00
2023-05-04T00:54:16.765Z,426.00
2023-05-04T00:55:16.832Z,427.00
2023-05-04T00:56:16.897Z,429.00
2023-05-04T00:57:16.931Z,431.00
2023-05-04T00:58:16.981Z,431.00
2023-05-04T00:59:17.024Z,434.00
2023-05-04T01:00:17.071Z,435.00
2023-05-04T01:01:17.157Z,433.00
2023-05-04T01:02:17.144Z,430.00
2023-05-04T01:03:17.263Z,429.00
2023-05-04T01:04:17.202Z,432.00
2023-05-04T01:05:17.245Z,432.00
2023-05-04T01:06:17.294Z,429.00
2023-05-04T01:07:17.349Z,428.00
2023-05-04T01:08:17.395Z,429.00
2023-05-04T01:09:17.458Z,424.00
2023-05-04T01:10:17.540Z,426.00
2023-05-04T01:11:17.570Z,427.00
2023-05-04T01:12:17.619Z,428.00
2023-05-04T01:13:17.713Z,430.00
2023-05-04T01:14:17.713Z,429.00
2023-05-04T01:15:17.791Z,427.00
2023-05-04T01:16:17.885Z,429.00
2023-05-04T01:17:17.938Z,431.00
2023-05-04T01:18:17.966Z,433.00
2023-05-04T01:19:18.021Z,435.00
2023-05-04T01:20:18.068Z,434.00
2023-05-04T01:21:18.107Z,436.00
2023-05-04T01:22:18.177Z,436.00
2023-05-04T01:23:18.212Z,433.00
2023-05-04T01:24:18.274Z,430.00
2023-05-04T01:25:18.298Z,434.00
2023-05-04T01:26:18.341Z,434.00
2023-05-04T01:27:18.367Z,434.00
2023-05-04T01:28:18.396Z,438.00
2023-05-04T01:29:18.421Z,437.00
2023-05-04T01:30:18.446Z,434.00
2023-05-04T01:31:18.530Z,431.00
2023-05-04T01:32:18.490Z,431.00
2023-05-04T01:33:18.505Z,431.00
2023-05-04T01:34:18.524Z,431.00
2023-05-04T01:35:18.502Z,429.00
2023-05-04T01:36:18.516Z,426.00
2023-05-04T01:37:18.523Z,423.00
2023-05-04T01:38:18.513Z,423.00
2023-05-04T01:39:18.534Z,421.00
2023-05-04T01:40:18.518Z,421.00
2023-05-04T01:41:18.550Z,424.00
2023-05-04T01:42:18.569Z,423.00
2023-05-04T01:43:18.542Z,429.00
2023-05-04T01:44:18.558Z,431.00
2023-05-04T01:45:18.543Z,430.00
2023-05-04T01:46:18.572Z,431.00
2023-05-04T01:47:18.549Z,429.00
2023-05-04T01:48:18.581Z,429.00
2023-05-04T01:49:18.566Z,427.00
2023-05-04T01:50:18.568Z,427.00
2023-05-04T01:51:18.606Z,425.00
2023-05-04T01:52:18.619Z,426.00
2023-05-04T01:53:18.601Z,424.00
2023-05-04T01:54:18.609Z,423.00
2023-05-04T01:55:18.621Z,424.00
2023-05-04T01:56:18.633Z,423.00
2023-05-04T01:57:18.732Z,425.00
2023-05-04T01:58:18.709Z,428.00
2023-05-04T01:59:18.667Z,428.00
2023-05-04T02:00:18.641Z,428.00
2023-05-04T02:01:18.736Z,428.00
2023-05-04T02:02:18.686Z,431.00
2023-05-04T02:03:18.765Z,431.00
2023-05-04T02:04:18.680Z,428.00
2023-05-04T02:05:18.684Z,426.00
2023-05-04T02:06:18.695Z,428.00
2023-05-04T02:07:18.698Z,435.00
2023-05-04T02:08:18.717Z,433.00
2023-05-04T02:09:18.735Z,434.00
2023-05-04T02:10:18.732Z,439.00
2023-05-04T02:11:18.769Z,439.00
2023-05-04T02:12:18.784Z,440.00
2023-05-04T02:13:18.798Z,442.00
2023-05-04T02:14:18.801Z,442.00
2023-05-04T02:15:18.847Z,443.00
2023-05-04T02:16:18.897Z,442.00
2023-05-04T02:17:18.893Z,438.00
2023-05-04T02:18:18.921Z,437.00
2023-05-04T02:19:18.950Z,436.00
2023-05-04T02:20:18.991Z,430.00
2023-05-04T02:21:19.020Z,429.00
2023-05-04T02:22:19.043Z,429.00
2023-05-04T02:23:19.066Z,430.00
2023-05-04T02:24:19.110Z,428.00
2023-05-04T02:25:19.152Z,426.00
2023-05-04T02:26:19.169Z,426.00
2023-05-04T02:27:19.208Z,426.00
2023-05-04T02:28:19.220Z,427.00
2023-05-04T02:29:19.264Z,429.00
2023-05-04T02:30:19.307Z,429.00
2023-05-04T02:31:19.344Z,431.00
2023-05-04T02:32:19.383Z,431.00
2023-05-04T02:33:19.407Z,431.00
2023-05-04T02:34:19.414Z,430.00
2023-05-04T02:35:19.433Z,429.00
2023-05-04T02:36:19.468Z,431.00
2023-05-04T02:37:19.484Z,431.00
2023-05-04T02:38:19.497Z,430.00
2023-05-04T02:39:19.534Z,432.00
2023-05-04T02:40:19.546Z,433.00
2023-05-04T02:41:19.605Z,437.00
2023-05-04T02:42:19.650Z,435.00
2023-05-04T02:43:19.663Z,433.00
2023-05-04T02:44:19.724Z,431.00
2023-05-04T02:45:19.862Z,428.00
2023-05-04T02:46:19.908Z,426.00
2023-05-04T02:47:19.848Z,430.00
2023-05-04T02:48:19.870Z,430.00
2023-05-04T02:49:19.903Z,430.00
2023-05-04T02:50:19.998Z,427.00
2023-05-04T02:51:19.977Z,424.00
2023-05-04T02:52:20.030Z,424.00
2023-05-04T02:53:20.076Z,425.00
2023-05-04T02:54:20.124Z,425.00
2023-05-04T02:55:20.135Z,424.00
2023-05-04T02:56:20.189Z,423.00
2023-05-04T02:57:20.241Z,422.00
2023-05-04T02:58:20.287Z,423.00
2023-05-04T02:59:20.346Z,423.00
2023-05-04T03:00:20.386Z,425.00
2023-05-04T03:01:20.489Z,428.00
2023-05-04T03:02:20.531Z,428.00
2023-05-04T03:03:20.520Z,428.00
2023-05-04T03:04:20.568Z,431.00
2023-05-04T03:05:20.610Z,435.00
2023-05-04T03:06:20.644Z,438.00
2023-05-04T03:07:20.801Z,442.00
2023-05-04T03:08:20.832Z,442.00
2023-05-04T03:09:20.967Z,441.00
2023-05-04T03:10:20.877Z,443.00
2023-05-04T03:11:20.933Z,440.00
2023-05-04T03:12:21.008Z,436.00
2023-05-04T03:13:21.077Z,433.00
2023-05-04T03:14:21.117Z,428.00
2023-05-04T03:15:21.175Z,427.00
2023-05-04T03:16:21.297Z,425.00
2023-05-04T03:17:21.322Z,425.00
2023-05-04T03:18:21.324Z,421.00
2023-05-04T03:19:21.346Z,421.00
2023-05-04T03:20:21.356Z,422.00
2023-05-04T03:21:21.426Z,422.00
2023-05-04T03:22:21.440Z,424.00
2023-05-04T03:23:21.431Z,426.00
2023-05-04T03:24:21.443Z,425.00
2023-05-04T03:25:21.500Z,424.00
2023-05-04T03:26:21.575Z,426.00
2023-05-04T03:27:21.586Z,425.00
2023-05-04T03:28:21.638Z,422.00
2023-05-04T03:29:21.673Z,418.00
2023-05-04T03:30:21.740Z,419.00
2023-05-04T03:31:21.808Z,419.00
2023-05-04T03:32:21.804Z,422.00
2023-05-04T03:33:21.899Z,423.00
2023-05-04T03:34:21.934Z,423.00
2023-05-04T03:35:24.977Z,423.00
2023-05-04T03:36:21.888Z,421.00
2023-05-04T03:37:21.880Z,420.00
2023-05-04T03:38:21.867Z,420.00
2023-05-04T03:39:21.896Z,420.00
2023-05-04T03:40:21.881Z,417.00
2023-05-04T03:41:21.844Z,417.00
2023-05-04T03:42:21.843Z,419.00
2023-05-04T03:43:21.840Z,418.00
2023-05-04T03:44:21.822Z,418.00
2023-05-04T03:45:21.834Z,418.00
2023-05-04T03:46:21.901Z,422.00
2023-05-04T03:47:21.830Z,424.00
2023-05-04T03:48:21.841Z,425.00
2023-05-04T03:49:21.809Z,423.00
2023-05-04T03:50:21.792Z,424.00
2023-05-04T03:51:21.788Z,426.00
2023-05-04T03:52:21.789Z,431.00
2023-05-04T03:53:21.761Z,433.00
2023-05-04T03:54:21.786Z,433.00
2023-05-04T03:55:21.767Z,432.00
2023-05-04T03:56:21.736Z,431.00
2023-05-04T03:57:21.754Z,429.00
2023-05-04T03:58:21.756Z,428.00
2023-05-04T03:59:21.723Z,430.00
2023-05-04T04:00:21.730Z,430.00
2023-05-04T04:01:21.715Z,431.00
2023-05-04T04:02:21.778Z,430.00
2023-05-04T04:03:22.099Z,431.00
2023-05-04T04:04:21.744Z,432.00
2023-05-04T04:05:21.704Z,431.00
2023-05-04T04:06:21.697Z,432.00
2023-05-04T04:07:21.658Z,433.00
2023-05-04T04:08:21.668Z,434.00
2023-05-04T04:09:21.640Z,433.00
2023-05-04T04:10:21.671Z,432.00
2023-05-04T04:11:21.649Z,430.00
2023-05-04T04:12:21.637Z,432.00
2023-05-04T04:13:21.772Z,429.00
2023-05-04T04:14:21.612Z,427.00
2023-05-04T04:15:21.631Z,424.00
2023-05-04T04:16:21.732Z,425.00
2023-05-04T04:17:21.671Z,425.00
2023-05-04T04:18:21.590Z,427.00
2023-05-04T04:19:21.571Z,424.00
2023-05-04T04:20:21.565Z,422.00
2023-05-04T04:21:21.608Z,421.00
2023-05-04T04:22:21.579Z,422.00
2023-05-04T04:23:21.578Z,423.00
2023-05-04T04:24:21.545Z,423.00
2023-05-04T04:25:21.531Z,425.00
2023-05-04T04:26:21.570Z,428.00
2023-05-04T04:27:21.655Z,431.00
2023-05-04T04:28:21.634Z,428.00
2023-05-04T04:29:21.505Z,427.00
2023-05-04T04:30:21.495Z,428.00
2023-05-04T04:31:21.563Z,426.00
2023-05-04T04:32:21.472Z,429.00
2023-05-04T04:33:21.483Z,428.00
2023-05-04T04:34:21.464Z,427.00
2023-05-04T04:35:21.469Z,428.00
2023-05-04T04:36:21.462Z,430.00
2023-05-04T04:37:21.462Z,433.00
2023-05-04T04:38:21.462Z,437.00
2023-05-04T04:39:21.467Z,442.00
2023-05-04T04:40:21.416Z,444.00
2023-05-04T04:41:21.451Z,443.00
2023-05-04T04:42:21.486Z,445.00
2023-05-04T04:43:21.406Z,444.00
2023-05-04T04:44:21.434Z,447.00
2023-05-04T04:45:21.420Z,446.00
2023-05-04T04:46:21.447Z,440.00
2023-05-04T04:47:21.380Z,436.00
2023-05-04T04:48:21.404Z,435.00
2023-05-04T04:49:21.374Z,435.00
2023-05-04T04:50:21.364Z,434.00
2023-05-04T04:51:21.366Z,433.00
2023-05-04T04:52:21.392Z,432.00
2023-05-04T04:53:21.348Z,434.00
2023-05-04T04:54:21.347Z,435.00
2023-05-04T04:55:21.335Z,435.00
2023-05-04T04:56:21.329Z,434.00
2023-05-04T04:57:21.319Z,430.00
2023-05-04T04:58:21.287Z,428.00
2023-05-04T04:59:21.290Z,425.00
2023-05-04T05:00:21.286Z,423.00
2023-05-04T05:01:21.340Z,424.00
2023-05-04T05:02:21.267Z,425.00
2023-05-04T05:03:21.263Z,429.00
2023-05-04T05:04:21.270Z,430.00
2023-05-04T05:05:21.262Z,431.00
2023-05-04T05:06:21.256Z,436.00
2023-05-04T05:07:21.262Z,435.00
2023-05-04T05:08:21.273Z,436.00
2023-05-04T05:09:21.245Z,438.00
2023-05-04T05:10:21.262Z,436.00
2023-05-04T05:11:21.320Z,434.00
2023-05-04T05:12:22.473Z,433.00
2023-05-04T05:13:21.571Z,433.00
2023-05-04T05:14:21.497Z,437.00
2023-05-04T05:15:21.563Z,439.00
2023-05-04T05:16:21.647Z,444.00
2023-05-04T05:17:21.701Z,444.00
2023-05-04T05:18:21.742Z,448.00
2023-05-04T05:19:21.782Z,482.00
2023-05-04T05:20:21.836Z,527.00
2023-05-04T05:21:21.837Z,491.00
2023-05-04T05:22:21.808Z,485.00
2023-05-04T05:23:21.796Z,469.00
2023-05-04T05:24:21.838Z,466.00
2023-05-04T05:25:21.826Z,460.00
2023-05-04T05:26:21.806Z,453.00
2023-05-04T05:27:21.984Z,453.00
2023-05-04T05:28:21.778Z,452.00
2023-05-04T05:29:21.794Z,450.00
2023-05-04T05:30:21.760Z,450.00
2023-05-04T05:31:21.775Z,445.00
2023-05-04T05:32:21.741Z,443.00
2023-05-04T05:33:21.765Z,442.00
2023-05-04T05:34:21.730Z,442.00
2023-05-04T05:35:21.733Z,444.00
2023-05-04T05:36:21.705Z,445.00
2023-05-04T05:37:22.013Z,446.00
2023-05-04T05:38:21.829Z,444.00
2023-05-04T05:39:21.932Z,441.00
2023-05-04T05:40:21.932Z,439.00
2023-05-04T05:41:21.969Z,436.00
2023-05-04T05:42:22.538Z,437.00
2023-05-04T05:43:22.099Z,436.00
2023-05-04T05:44:22.165Z,436.00
2023-05-04T05:45:22.218Z,437.00
2023-05-04T05:46:22.362Z,436.00
2023-05-04T05:47:22.415Z,436.00
2023-05-04T05:48:22.394Z,435.00
2023-05-04T05:49:22.454Z,435.00
2023-05-04T05:50:22.494Z,434.00
2023-05-04T05:51:22.514Z,435.00
2023-05-04T05:52:22.577Z,433.00
2023-05-04T05:53:22.599Z,431.00
2023-05-04T05:54:22.633Z,431.00
2023-05-04T05:55:22.707Z,431.00
2023-05-04T05:56:22.714Z,432.00
2023-05-04T05:57:22.726Z,432.00
2023-05-04T05:58:22.782Z,431.00
2023-05-04T05:59:22.818Z,434.00
2023-05-04T06:00:22.841Z,434.00
2023-05-04T06:01:22.876Z,431.00
2023-05-04T06:02:23.033Z,430.00
2023-05-04T06:03:23.128Z,429.00
2023-05-04T06:04:23.004Z,430.00
2023-05-04T06:05:22.942Z,429.00
2023-05-04T06:06:22.980Z,427.00
2023-05-04T06:07:22.975Z,428.00
2023-05-04T06:08:22.958Z,427.00
2023-05-04T06:09:22.954Z,428.00
2023-05-04T06:10:22.981Z,428.00
2023-05-04T06:11:22.961Z,429.00
2023-05-04T06:12:22.960Z,430.00
2023-05-04T06:13:22.959Z,428.00
2023-05-04T06:14:23.045Z,425.00
2023-05-04T06:15:22.967Z,422.00
2023-05-04T06:16:23.053Z,422.00
2023-05-04T06:17:23.193Z,425.00
2023-05-04T06:18:23.072Z,427.00
2023-05-04T06:19:23.235Z,428.00
2023-05-04T06:20:23.216Z,428.00
2023-05-04T06:21:23.243Z,426.00
2023-05-04T06:22:23.354Z,425.00
2023-05-04T06:23:23.371Z,425.00
2023-05-04T06:24:23.415Z,426.00
2023-05-04T06:25:23.490Z,426.00
2023-05-04T06:26:23.527Z,428.00
2023-05-04T06:27:24.264Z,429.00
2023-05-04T06:28:24.024Z,427.00
2023-05-04T06:29:23.673Z,428.00
2023-05-04T06:30:23.709Z,426.00
2023-05-04T06:31:23.843Z,424.00
2023-05-04T06:32:24.037Z,422.00
2023-05-04T06:33:23.984Z,422.00
2023-05-04T06:34:23.980Z,420.00
2023-05-04T06:35:24.014Z,419.00
2023-05-04T06:36:24.084Z,419.00
2023-05-04T06:37:24.528Z,421.00
2023-05-04T06:38:24.183Z,421.00
2023-05-04T06:39:24.257Z,421.00
2023-05-04T06:40:24.246Z,422.00
2023-05-04T06:41:24.234Z,421.00
2023-05-04T06:42:24.235Z,422.00
2023-05-04T06:43:24.201Z,423.00
2023-05-04T06:44:24.226Z,424.00
2023-05-04T06:45:24.236Z,422.00
2023-05-04T06:46:24.224Z,419.00
2023-05-04T06:47:24.198Z,418.00
2023-05-04T06:48:24.179Z,418.00
2023-05-04T06:49:24.184Z,420.00
2023-05-04T06:50:24.193Z,419.00
2023-05-04T06:51:24.178Z,421.00
2023-05-04T06:52:24.174Z,422.00
2023-05-04T06:53:24.154Z,425.00
2023-05-04T06:54:24.153Z,426.00
2023-05-04T06:55:24.144Z,428.00
2023-05-04T06:56:24.132Z,429.00
2023-05-04T06:57:24.143Z,429.00
2023-05-04T06:58:24.134Z,430.00
2023-05-04T06:59:24.167Z,429.00
2023-05-04T07:00:24.127Z,429.00
2023-05-04T07:01:24.274Z,431.00
2023-05-04T07:02:24.197Z,430.00
2023-05-04T07:03:24.145Z,428.00
2023-05-04T07:04:24.135Z,427.00
2023-05-04T07:05:24.227Z,426.00
2023-05-04T07:06:24.280Z,426.00
2023-05-04T07:07:24.347Z,425.00
2023-05-04T07:08:24.410Z,426.00
2023-05-04T07:09:24.418Z,426.00
2023-05-04T07:10:24.495Z,426.00
2023-05-04T07:11:24.529Z,424.00
2023-05-04T07:12:24.631Z,424.00
2023-05-04T07:13:25.020Z,424.00
2023-05-04T07:14:24.690Z,424.00
2023-05-04T07:15:24.738Z,420.00
2023-05-04T07:16:24.801Z,421.00
2023-05-04T07:17:25.058Z,422.00
2023-05-04T07:18:24.873Z,421.00
2023-05-04T07:19:24.892Z,420.00
2023-05-04T07:20:26.042Z,422.00
2023-05-04T07:21:28.247Z,424.00
2023-05-04T07:22:24.956Z,424.00
2023-05-04T07:23:24.954Z,420.00
2023-05-04T07:24:24.974Z,421.00
2023-05-04T07:25:24.954Z,421.00
2023-05-04T07:26:24.936Z,421.00
2023-05-04T07:27:25.155Z,405.00
2023-05-04T07:28:24.931Z,413.00
2023-05-04T07:29:24.906Z,416.00
2023-05-04T07:30:24.933Z,417.00
2023-05-04T07:31:24.982Z,416.00
2023-05-04T07:32:25.169Z,412.00
2023-05-04T07:33:24.973Z,413.00
2023-05-04T07:34:34.021Z,415.00
2023-05-04T07:35:25.865Z,416.00
2023-05-04T07:36:24.883Z,417.00
2023-05-04T07:37:25.021Z,416.00
2023-05-04T07:38:25.139Z,416.00
2023-05-04T07:39:24.817Z,415.00
2023-05-04T07:40:24.838Z,416.00
2023-05-04T07:41:24.800Z,418.00
2023-05-04T07:42:25.016Z,421.00
2023-05-04T07:43:24.815Z,420.00
2023-05-04T07:44:24.865Z,422.00
2023-05-04T07:45:24.776Z,423.00
2023-05-04T07:46:24.794Z,422.00
2023-05-04T07:47:25.162Z,421.00
2023-05-04T07:48:26.669Z,419.00
2023-05-04T07:49:24.847Z,419.00
2023-05-04T07:50:24.798Z,420.00
2023-05-04T07:51:24.923Z,421.00
2023-05-04T07:52:24.752Z,423.00
2023-05-04T07:53:25.033Z,424.00
2023-05-04T07:54:24.749Z,423.00
2023-05-04T07:55:24.745Z,426.00
2023-05-04T07:56:24.713Z,433.00
2023-05-04T07:57:24.739Z,434.00
2023-05-04T07:58:25.018Z,434.00
2023-05-04T07:59:24.717Z,430.00
2023-05-04T08:00:24.731Z,426.00
2023-05-04T08:01:24.767Z,423.00
2023-05-04T08:02:24.892Z,422.00
2023-05-04T08:03:24.847Z,423.00
2023-05-04T08:04:24.787Z,425.00
2023-05-04T08:05:24.797Z,424.00
2023-05-04T08:06:24.799Z,419.00
2023-05-04T08:07:24.901Z,419.00
2023-05-04T08:08:25.038Z,422.00
2023-05-04T08:09:24.928Z,421.00
2023-05-04T08:10:25.022Z,419.00
2023-05-04T08:11:24.997Z,420.00
2023-05-04T08:12:25.101Z,423.00
2023-05-04T08:13:25.097Z,424.00
2023-05-04T08:14:25.110Z,426.00
2023-05-04T08:15:25.114Z,426.00
2023-05-04T08:16:25.095Z,427.00
2023-05-04T08:17:25.207Z,428.00
2023-05-04T08:18:25.170Z,428.00
2023-05-04T08:19:25.248Z,428.00
2023-05-04T08:20:25.308Z,429.00
2023-05-04T08:21:25.339Z,426.00
2023-05-04T08:22:25.379Z,426.00
2023-05-04T08:23:25.532Z,428.00
2023-05-04T08:24:25.526Z,427.00
2023-05-04T08:25:25.611Z,428.00
2023-05-04T08:26:25.674Z,433.00
2023-05-04T08:27:25.712Z,439.00
2023-05-04T08:28:25.833Z,443.00
2023-05-04T08:29:25.790Z,436.00
2023-05-04T08:30:25.813Z,434.00
2023-05-04T08:31:25.874Z,429.00
2023-05-04T08:32:25.920Z,429.00
2023-05-04T08:33:25.941Z,438.00
2023-05-04T08:34:25.975Z,443.00
2023-05-04T08:35:25.994Z,442.00
2023-05-04T08:36:26.046Z,451.00
2023-05-04T08:37:26.189Z,454.00
2023-05-04T08:38:26.098Z,440.00
2023-05-04T08:39:26.173Z,433.00
2023-05-04T08:40:26.175Z,428.00
2023-05-04T08:41:26.172Z,426.00
2023-05-04T08:42:26.209Z,422.00
2023-05-04T08:43:26.588Z,424.00
2023-05-04T08:44:26.296Z,424.00
2023-05-04T08:45:26.346Z,425.00
2023-05-04T08:46:26.324Z,427.00
2023-05-04T08:47:26.371Z,424.00
2023-05-04T08:48:26.378Z,425.00
2023-05-04T08:49:26.635Z,426.00
2023-05-04T08:50:26.494Z,427.00
2023-05-04T08:51:26.440Z,427.00
2023-05-04T08:52:26.503Z,429.00
2023-05-04T08:53:26.584Z,428.00
2023-05-04T08:54:26.492Z,430.00
2023-05-04T08:55:26.528Z,428.00
2023-05-04T08:56:26.529Z,426.00
2023-05-04T08:57:26.564Z,425.00
2023-05-04T08:58:26.553Z,426.00
2023-05-04T08:59:26.661Z,427.00
2023-05-04T09:00:26.622Z,427.00
2023-05-04T09:01:26.720Z,426.00
2023-05-04T09:02:26.677Z,424.00
2023-05-04T09:03:27.101Z,424.00
2023-05-04T09:04:28.633Z,416.00
2023-05-04T09:05:26.618Z,416.00
2023-05-04T09:06:26.599Z,419.00
2023-05-04T09:07:26.611Z,420.00
2023-05-04T09:08:27.067Z,423.00
2023-05-04T09:09:26.613Z,423.00
2023-05-04T09:10:29.413Z,424.00
2023-05-04T09:11:26.603Z,417.00
2023-05-04T09:12:26.583Z,423.00
2023-05-04T09:13:27.064Z,426.00
2023-05-04T09:14:26.540Z,425.00
2023-05-04T09:15:26.566Z,426.00
2023-05-04T09:16:26.738Z,427.00
2023-05-04T09:17:26.647Z,425.00
2023-05-04T09:18:26.656Z,424.00
2023-05-04T09:19:26.545Z,422.00
2023-05-04T09:20:26.504Z,422.00
2023-05-04T09:21:26.566Z,421.00
2023-05-04T09:22:28.244Z,423.00
2023-05-04T09:23:26.596Z,425.00
2023-05-04T09:24:26.515Z,427.00
2023-05-04T09:25:26.506Z,427.00
2023-05-04T09:26:26.528Z,430.00
2023-05-04T09:27:26.572Z,433.00
2023-05-04T09:28:28.834Z,432.00
2023-05-04T09:29:26.646Z,432.00
2023-05-04T09:30:26.801Z,431.00
2023-05-04T09:31:26.826Z,429.00
2023-05-04T09:32:26.813Z,427.00
2023-05-04T09:33:27.063Z,426.00
2023-05-04T09:34:26.819Z,429.00
2023-05-04T09:35:33.218Z,428.00
2023-05-04T09:36:27.842Z,429.00
2023-05-04T09:37:26.821Z,430.00
2023-05-04T09:38:26.846Z,430.00
2023-05-04T09:39:26.814Z,430.00
2023-05-04T09:40:26.817Z,430.00
2023-05-04T09:41:26.775Z,429.00
2023-05-04T09:42:26.948Z,429.00
2023-05-04T09:43:26.779Z,430.00
2023-05-04T09:44:29.382Z,429.00
2023-05-04T09:45:26.755Z,420.00
2023-05-04T09:46:26.785Z,425.00
2023-05-04T09:47:26.789Z,422.00
2023-05-04T09:48:26.838Z,423.00
2023-05-04T09:49:26.725Z,423.00
2023-05-04T09:50:26.770Z,423.00
2023-05-04T09:51:26.837Z,425.00
2023-05-04T09:52:26.717Z,426.00
2023-05-04T09:53:27.096Z,428.00
2023-05-04T09:54:26.688Z,428.00
2023-05-04T09:55:26.704Z,429.00
2023-05-04T09:56:26.694Z,430.00
2023-05-04T09:57:26.686Z,429.00
2023-05-04T09:58:27.245Z,431.00
2023-05-04T09:59:26.695Z,430.00
2023-05-04T10:00:26.659Z,429.00
2023-05-04T10:01:26.720Z,429.00
2023-05-04T10:02:26.688Z,433.00
2023-05-04T10:03:26.634Z,434.00
2023-05-04T10:04:26.670Z,435.00
2023-05-04T10:05:26.673Z,436.00
2023-05-04T10:06:26.616Z,435.00
2023-05-04T10:07:26.625Z,434.00
2023-05-04T10:08:26.637Z,433.00
2023-05-04T10:09:26.655Z,433.00
2023-05-04T10:10:26.589Z,433.00
2023-05-04T10:11:26.582Z,435.00
2023-05-04T10:12:26.600Z,435.00
2023-05-04T10:13:26.664Z,434.00
2023-05-04T10:14:26.558Z,434.00
2023-05-04T10:15:26.599Z,433.00
2023-05-04T10:16:26.598Z,435.00
2023-05-04T10:17:26.598Z,493.00
2023-05-04T10:18:26.531Z,497.00
2023-05-04T10:19:26.554Z,492.00
2023-05-04T10:20:26.530Z,448.00
2023-05-04T10:21:26.512Z,440.00
2023-05-04T10:22:26.519Z,436.00
2023-05-04T10:23:26.563Z,432.00
2023-05-04T10:24:26.574Z,436.00
2023-05-04T10:25:26.517Z,440.00
2023-05-04T10:26:26.590Z,439.00
2023-05-04T10:27:26.527Z,437.00
2023-05-04T10:28:26.472Z,423.00
2023-05-04T10:29:26.526Z,425.00
2023-05-04T10:30:26.468Z,428.00
2023-05-04T10:31:26.542Z,430.00
2023-05-04T10:32:26.469Z,432.00
2023-05-04T10:33:26.466Z,433.00
2023-05-04T10:34:26.568Z,435.00
2023-05-04T10:35:26.454Z,434.00
2023-05-04T10:36:26.470Z,430.00
2023-05-04T10:37:26.444Z,428.00
2023-05-04T10:38:26.408Z,426.00
2023-05-04T10:39:26.459Z,428.00
2023-05-04T10:40:26.450Z,428.00
2023-05-04T10:41:26.518Z,427.00
2023-05-04T10:42:26.523Z,429.00
2023-05-04T10:43:26.640Z,429.00
2023-05-04T10:44:27.089Z,430.00
2023-05-04T10:45:26.656Z,431.00
2023-05-04T10:46:26.678Z,434.00
2023-05-04T10:47:26.770Z,436.00
2023-05-04T10:48:26.760Z,439.00
2023-05-04T10:49:27.065Z,438.00
2023-05-04T10:50:26.876Z,437.00
2023-05-04T10:51:35.648Z,436.00
2023-05-04T10:52:27.874Z,438.00
2023-05-04T10:53:26.861Z,435.00
2023-05-04T10:54:27.071Z,435.00
2023-05-04T10:55:26.838Z,435.00
2023-05-04T10:56:26.851Z,436.00
2023-05-04T10:57:26.849Z,427.00
2023-05-04T10:58:26.804Z,432.00
2023-05-04T10:59:27.071Z,434.00
2023-05-04T11:00:26.811Z,436.00
2023-05-04T11:01:26.854Z,437.00
2023-05-04T11:02:26.971Z,437.00
2023-05-04T11:03:26.921Z,438.00
2023-05-04T11:04:27.095Z,437.00
2023-05-04T11:05:26.785Z,437.00
2023-05-04T11:06:26.809Z,441.00
2023-05-04T11:07:26.834Z,433.00
2023-05-04T11:08:26.881Z,432.00
2023-05-04T11:09:26.886Z,433.00
2023-05-04T11:10:26.902Z,433.00
2023-05-04T11:11:26.956Z,435.00
2023-05-04T11:12:26.944Z,435.00
2023-05-04T11:13:27.073Z,430.00
2023-05-04T11:14:27.200Z,430.00
2023-05-04T11:15:27.110Z,438.00
2023-05-04T11:16:27.223Z,449.00
2023-05-04T11:17:28.508Z,445.00
2023-05-04T11:18:27.076Z,443.00
2023-05-04T11:19:27.042Z,442.00
2023-05-04T11:20:27.169Z,433.00
2023-05-04T11:21:27.046Z,434.00
2023-05-04T11:22:27.071Z,431.00
2023-05-04T11:23:27.094Z,430.00
2023-05-04T11:24:27.068Z,431.00
2023-05-04T11:25:27.064Z,431.00
2023-05-04T11:26:27.083Z,434.00
2023-05-04T11:27:27.093Z,430.00
2023-05-04T11:28:27.103Z,431.00
2023-05-04T11:29:27.088Z,435.00
2023-05-04T11:30:27.140Z,438.00
2023-05-04T11:31:27.172Z,438.00
2023-05-04T11:32:27.222Z,437.00
2023-05-04T11:33:27.226Z,436.00
2023-05-04T11:34:27.195Z,437.00
2023-05-04T11:35:27.234Z,441.00
2023-05-04T11:36:27.272Z,445.00
2023-05-04T11:37:27.423Z,445.00
2023-05-04T11:38:27.381Z,443.00
2023-05-04T11:39:27.446Z,445.00
2023-05-04T11:40:27.517Z,444.00
2023-05-04T11:41:27.547Z,446.00
2023-05-04T11:42:27.582Z,444.00
2023-05-04T11:43:27.663Z,442.00
2023-05-04T11:44:27.721Z,441.00
2023-05-04T11:45:27.744Z,443.00
2023-05-04T11:46:27.797Z,445.00
2023-05-04T11:47:27.904Z,446.00
2023-05-04T11:48:27.920Z,445.00
2023-05-04T11:49:27.977Z,443.00
2023-05-04T11:50:28.009Z,445.00
2023-05-04T11:51:28.019Z,444.00
2023-05-04T11:52:28.074Z,443.00
2023-05-04T11:53:28.176Z,446.00
2023-05-04T11:54:28.191Z,444.00
2023-05-04T11:55:28.249Z,440.00
2023-05-04T11:56:28.296Z,441.00
2023-05-04T11:57:28.357Z,442.00
2023-05-04T11:58:28.424Z,445.00
2023-05-04T11:59:28.468Z,446.00
2023-05-04T12:00:28.508Z,446.00
2023-05-04T12:01:28.535Z,450.00
2023-05-04T12:02:28.618Z,452.00
2023-05-04T12:03:35.963Z,448.00
2023-05-04T12:04:29.586Z,448.00
2023-05-04T12:05:28.637Z,448.00
2023-05-04T12:06:28.566Z,447.00
2023-05-04T12:07:28.562Z,449.00
2023-05-04T12:08:28.532Z,448.00
2023-05-04T12:09:28.568Z,449.00
2023-05-04T12:10:28.546Z,446.00
2023-05-04T12:11:28.523Z,445.00
2023-05-04T12:12:28.530Z,448.00
2023-05-04T12:13:28.518Z,448.00
2023-05-04T12:14:28.510Z,451.00
2023-05-04T12:15:28.483Z,451.00
2023-05-04T12:16:28.529Z,452.00
2023-05-04T12:17:28.492Z,449.00
2023-05-04T12:18:28.482Z,448.00
2023-05-04T12:19:28.471Z,447.00
2023-05-04T12:20:28.473Z,447.00
2023-05-04T12:21:28.466Z,447.00
2023-05-04T12:22:28.450Z,447.00
2023-05-04T12:23:28.462Z,446.00
2023-05-04T12:24:28.456Z,446.00
2023-05-04T12:25:28.417Z,447.00
2023-05-04T12:26:28.490Z,447.00
2023-05-04T12:27:28.509Z,446.00
2023-05-04T12:28:28.578Z,444.00